sensor_id;sensor_type;location;lat;lon;timestamp;P1;durP1;ratioP1;P2;durP2;ratioP2
83694;SDS011;73676;43.582;22.268;2024-03-29T00:00:26;10.43;;;4.60;;
83694;SDS011;73676;43.582;22.268;2024-03-29T00:02:51;8.57;;;4.20;;
83694;SDS011;73676;43.582;22.268;2024-03-29T00:05:16;6.15;;;3.55;;
83694;SDS011;73676;43.582;22.268;2024-03-29T00:07:42;10.55;;;4.85;;
83694;SDS011;73676;43.582;22.268;2024-03-29T00:10:07;6.82;;;4.05;;
83694;SDS011;73676;43.582;22.268;2024-03-29T00:12:32;11.60;;;5.63;;
83694;SDS011;73676;43.582;22.268;2024-03-29T00:14:58;24.85;;;15.15;;
83694;SDS011;73676;43.582;22.268;2024-03-29T00:17:23;10.23;;;6.32;;
83694;SDS011;73676;43.582;22.268;2024-03-29T00:19:48;7.45;;;4.18;;
83694;SDS011;73676;43.582;22.268;2024-03-29T00:22:13;13.40;;;7.25;;
83694;SDS011;73676;43.582;22.268;2024-03-29T00:24:39;9.75;;;4.78;;
83694;SDS011;73676;43.582;22.268;2024-03-29T00:27:04;9.30;;;5.25;;
83694;SDS011;73676;43.582;22.268;2024-03-29T00:29:30;7.15;;;4.22;;
83694;SDS011;73676;43.582;22.268;2024-03-29T00:31:55;12.10;;;5.40;;
83694;SDS011;73676;43.582;22.268;2024-03-29T00:34:20;7.88;;;3.65;;
83694;SDS011;73676;43.582;22.268;2024-03-29T00:36:46;6.82;;;3.30;;
83694;SDS011;73676;43.582;22.268;2024-03-29T00:39:11;7.38;;;3.58;;
83694;SDS011;73676;43.582;22.268;2024-03-29T00:41:36;6.28;;;3.40;;
83694;SDS011;73676;43.582;22.268;2024-03-29T00:44:02;5.03;;;2.42;;
83694;SDS011;73676;43.582;22.268;2024-03-29T00:46:28;7.88;;;4.05;;
83694;SDS011;73676;43.582;22.268;2024-03-29T00:48:53;6.30;;;4.13;;
83694;SDS011;73676;43.582;22.268;2024-03-29T00:51:18;5.13;;;3.20;;
83694;SDS011;73676;43.582;22.268;2024-03-29T00:53:44;4.80;;;2.60;;
83694;SDS011;73676;43.582;22.268;2024-03-29T00:56:11;9.95;;;5.32;;
83694;SDS011;73676;43.582;22.268;2024-03-29T00:58:37;6.90;;;3.10;;
83694;SDS011;73676;43.582;22.268;2024-03-29T01:01:02;11.15;;;4.93;;
83694;SDS011;73676;43.582;22.268;2024-03-29T01:03:27;18.67;;;11.52;;
83694;SDS011;73676;43.582;22.268;2024-03-29T01:05:55;8.70;;;4.32;;
83694;SDS011;73676;43.582;22.268;2024-03-29T01:08:20;10.23;;;4.82;;
83694;SDS011;73676;43.582;22.268;2024-03-29T01:10:46;9.80;;;5.55;;
83694;SDS011;73676;43.582;22.268;2024-03-29T01:13:11;13.98;;;6.32;;
83694;SDS011;73676;43.582;22.268;2024-03-29T01:15:36;45.05;;;20.58;;
83694;SDS011;73676;43.582;22.268;2024-03-29T01:18:02;9.05;;;4.38;;
83694;SDS011;73676;43.582;22.268;2024-03-29T01:20:27;17.38;;;6.53;;
83694;SDS011;73676;43.582;22.268;2024-03-29T01:22:52;42.08;;;15.75;;
83694;SDS011;73676;43.582;22.268;2024-03-29T01:25:17;16.00;;;6.55;;
83694;SDS011;73676;43.582;22.268;2024-03-29T01:27:43;16.35;;;7.88;;
83694;SDS011;73676;43.582;22.268;2024-03-29T01:30:08;12.60;;;6.95;;
83694;SDS011;73676;43.582;22.268;2024-03-29T01:32:34;9.73;;;4.88;;
83694;SDS011;73676;43.582;22.268;2024-03-29T01:34:59;9.85;;;5.00;;
83694;SDS011;73676;43.582;22.268;2024-03-29T01:37:24;11.25;;;4.90;;
83694;SDS011;73676;43.582;22.268;2024-03-29T01:39:50;21.25;;;11.18;;
83694;SDS011;73676;43.582;22.268;2024-03-29T01:42:16;18.88;;;10.43;;
83694;SDS011;73676;43.582;22.268;2024-03-29T01:44:41;9.02;;;3.97;;
83694;SDS011;73676;43.582;22.268;2024-03-29T01:47:07;10.73;;;5.50;;
83694;SDS011;73676;43.582;22.268;2024-03-29T01:49:32;13.10;;;6.90;;
83694;SDS011;73676;43.582;22.268;2024-03-29T01:51:58;7.70;;;3.47;;
83694;SDS011;73676;43.582;22.268;2024-03-29T01:54:23;17.08;;;7.55;;
83694;SDS011;73676;43.582;22.268;2024-03-29T01:56:49;14.68;;;5.75;;
83694;SDS011;73676;43.582;22.268;2024-03-29T01:59:15;8.05;;;3.70;;
83694;SDS011;73676;43.582;22.268;2024-03-29T02:01:41;12.77;;;6.07;;
83694;SDS011;73676;43.582;22.268;2024-03-29T02:04:07;12.43;;;5.13;;
83694;SDS011;73676;43.582;22.268;2024-03-29T02:06:33;17.48;;;6.38;;
83694;SDS011;73676;43.582;22.268;2024-03-29T02:08:58;7.78;;;4.05;;
83694;SDS011;73676;43.582;22.268;2024-03-29T02:11:23;6.35;;;3.05;;
83694;SDS011;73676;43.582;22.268;2024-03-29T02:13:49;11.43;;;5.32;;
83694;SDS011;73676;43.582;22.268;2024-03-29T02:16:15;12.88;;;5.05;;
83694;SDS011;73676;43.582;22.268;2024-03-29T02:18:40;11.55;;;5.03;;
83694;SDS011;73676;43.582;22.268;2024-03-29T02:21:06;5.88;;;2.70;;
83694;SDS011;73676;43.582;22.268;2024-03-29T02:23:32;4.60;;;2.20;;
83694;SDS011;73676;43.582;22.268;2024-03-29T02:25:59;7.35;;;3.20;;
83694;SDS011;73676;43.582;22.268;2024-03-29T02:28:25;8.90;;;4.22;;
83694;SDS011;73676;43.582;22.268;2024-03-29T02:30:50;5.25;;;3.00;;
83694;SDS011;73676;43.582;22.268;2024-03-29T02:33:16;8.95;;;4.10;;
83694;SDS011;73676;43.582;22.268;2024-03-29T02:35:41;11.27;;;4.40;;
83694;SDS011;73676;43.582;22.268;2024-03-29T02:38:06;14.45;;;4.90;;
83694;SDS011;73676;43.582;22.268;2024-03-29T02:40:32;10.68;;;4.38;;
83694;SDS011;73676;43.582;22.268;2024-03-29T02:42:57;13.30;;;5.10;;
83694;SDS011;73676;43.582;22.268;2024-03-29T02:45:22;16.63;;;5.70;;
83694;SDS011;73676;43.582;22.268;2024-03-29T02:47:48;27.05;;;9.10;;
83694;SDS011;73676;43.582;22.268;2024-03-29T02:50:15;22.75;;;6.78;;
83694;SDS011;73676;43.582;22.268;2024-03-29T02:52:41;27.52;;;7.68;;
83694;SDS011;73676;43.582;22.268;2024-03-29T02:55:07;13.80;;;5.00;;
83694;SDS011;73676;43.582;22.268;2024-03-29T02:57:32;5.22;;;2.42;;
83694;SDS011;73676;43.582;22.268;2024-03-29T02:59:58;9.60;;;3.33;;
83694;SDS011;73676;43.582;22.268;2024-03-29T03:02:23;16.05;;;5.25;;
83694;SDS011;73676;43.582;22.268;2024-03-29T03:04:49;26.30;;;7.90;;
83694;SDS011;73676;43.582;22.268;2024-03-29T03:07:14;12.38;;;4.47;;
83694;SDS011;73676;43.582;22.268;2024-03-29T03:09:58;11.55;;;3.92;;
83694;SDS011;73676;43.582;22.268;2024-03-29T03:12:42;6.90;;;2.63;;
83694;SDS011;73676;43.582;22.268;2024-03-29T03:15:08;11.73;;;3.70;;
83694;SDS011;73676;43.582;22.268;2024-03-29T03:17:33;16.33;;;4.70;;
83694;SDS011;73676;43.582;22.268;2024-03-29T03:19:58;22.20;;;6.60;;
83694;SDS011;73676;43.582;22.268;2024-03-29T03:22:24;15.05;;;4.28;;
83694;SDS011;73676;43.582;22.268;2024-03-29T03:24:49;17.05;;;5.78;;
83694;SDS011;73676;43.582;22.268;2024-03-29T03:27:14;8.32;;;3.47;;
83694;SDS011;73676;43.582;22.268;2024-03-29T03:29:40;6.30;;;2.42;;
83694;SDS011;73676;43.582;22.268;2024-03-29T03:32:05;6.95;;;3.00;;
83694;SDS011;73676;43.582;22.268;2024-03-29T03:34:31;18.25;;;6.40;;
83694;SDS011;73676;43.582;22.268;2024-03-29T03:36:57;7.43;;;2.80;;
83694;SDS011;73676;43.582;22.268;2024-03-29T03:39:22;16.63;;;6.22;;
83694;SDS011;73676;43.582;22.268;2024-03-29T03:41:48;7.88;;;4.05;;
83694;SDS011;73676;43.582;22.268;2024-03-29T03:44:14;4.82;;;2.60;;
83694;SDS011;73676;43.582;22.268;2024-03-29T03:46:39;3.67;;;2.60;;
83694;SDS011;73676;43.582;22.268;2024-03-29T03:49:04;5.03;;;2.47;;
83694;SDS011;73676;43.582;22.268;2024-03-29T03:51:29;19.13;;;6.85;;
83694;SDS011;73676;43.582;22.268;2024-03-29T03:53:55;7.80;;;4.65;;
83694;SDS011;73676;43.582;22.268;2024-03-29T03:56:20;18.65;;;7.10;;
83694;SDS011;73676;43.582;22.268;2024-03-29T03:58:45;22.48;;;7.10;;
83694;SDS011;73676;43.582;22.268;2024-03-29T04:01:11;16.83;;;5.97;;
83694;SDS011;73676;43.582;22.268;2024-03-29T04:03:37;27.73;;;8.32;;
83694;SDS011;73676;43.582;22.268;2024-03-29T04:06:04;11.40;;;3.97;;
83694;SDS011;73676;43.582;22.268;2024-03-29T04:08:30;15.02;;;5.30;;
83694;SDS011;73676;43.582;22.268;2024-03-29T04:10:55;12.88;;;5.22;;
83694;SDS011;73676;43.582;22.268;2024-03-29T04:13:21;20.10;;;7.30;;
83694;SDS011;73676;43.582;22.268;2024-03-29T04:15:47;9.85;;;3.75;;
83694;SDS011;73676;43.582;22.268;2024-03-29T04:18:12;10.68;;;3.50;;
83694;SDS011;73676;43.582;22.268;2024-03-29T04:20:37;12.70;;;4.57;;
83694;SDS011;73676;43.582;22.268;2024-03-29T04:23:06;22.88;;;6.72;;
83694;SDS011;73676;43.582;22.268;2024-03-29T04:25:32;17.10;;;5.40;;
83694;SDS011;73676;43.582;22.268;2024-03-29T04:27:58;22.02;;;8.27;;
83694;SDS011;73676;43.582;22.268;2024-03-29T04:30:23;15.43;;;5.28;;
83694;SDS011;73676;43.582;22.268;2024-03-29T04:32:48;16.83;;;4.85;;
83694;SDS011;73676;43.582;22.268;2024-03-29T04:35:14;21.20;;;7.15;;
83694;SDS011;73676;43.582;22.268;2024-03-29T04:37:40;17.15;;;6.25;;
83694;SDS011;73676;43.582;22.268;2024-03-29T04:40:05;11.13;;;4.57;;
83694;SDS011;73676;43.582;22.268;2024-03-29T04:42:31;16.40;;;5.72;;
83694;SDS011;73676;43.582;22.268;2024-03-29T04:44:56;6.25;;;2.80;;
83694;SDS011;73676;43.582;22.268;2024-03-29T04:47:22;9.50;;;3.67;;
83694;SDS011;73676;43.582;22.268;2024-03-29T04:49:47;22.58;;;7.07;;
83694;SDS011;73676;43.582;22.268;2024-03-29T04:52:13;26.35;;;8.30;;
83694;SDS011;73676;43.582;22.268;2024-03-29T04:54:38;35.33;;;10.52;;
83694;SDS011;73676;43.582;22.268;2024-03-29T04:57:04;37.17;;;11.20;;
83694;SDS011;73676;43.582;22.268;2024-03-29T04:59:31;29.10;;;8.68;;
83694;SDS011;73676;43.582;22.268;2024-03-29T05:01:58;22.10;;;7.47;;
83694;SDS011;73676;43.582;22.268;2024-03-29T05:04:23;36.17;;;11.63;;
83694;SDS011;73676;43.582;22.268;2024-03-29T05:06:52;32.40;;;9.75;;
83694;SDS011;73676;43.582;22.268;2024-03-29T05:09:18;13.68;;;5.43;;
83694;SDS011;73676;43.582;22.268;2024-03-29T05:11:43;18.63;;;7.47;;
83694;SDS011;73676;43.582;22.268;2024-03-29T05:14:09;36.70;;;11.48;;
83694;SDS011;73676;43.582;22.268;2024-03-29T05:16:35;37.53;;;12.73;;
83694;SDS011;73676;43.582;22.268;2024-03-29T05:19:00;28.92;;;10.52;;
83694;SDS011;73676;43.582;22.268;2024-03-29T05:21:26;28.20;;;9.98;;
83694;SDS011;73676;43.582;22.268;2024-03-29T05:23:51;12.18;;;5.28;;
83694;SDS011;73676;43.582;22.268;2024-03-29T05:26:16;7.22;;;4.20;;
83694;SDS011;73676;43.582;22.268;2024-03-29T05:28:41;8.10;;;4.43;;
83694;SDS011;73676;43.582;22.268;2024-03-29T05:31:13;8.52;;;5.13;;
83694;SDS011;73676;43.582;22.268;2024-03-29T05:33:42;13.70;;;6.03;;
83694;SDS011;73676;43.582;22.268;2024-03-29T05:36:07;25.08;;;9.18;;
83694;SDS011;73676;43.582;22.268;2024-03-29T05:38:35;18.58;;;7.78;;
83694;SDS011;73676;43.582;22.268;2024-03-29T05:41:00;23.25;;;10.60;;
83694;SDS011;73676;43.582;22.268;2024-03-29T05:43:26;23.98;;;9.95;;
83694;SDS011;73676;43.582;22.268;2024-03-29T05:45:54;22.48;;;9.35;;
83694;SDS011;73676;43.582;22.268;2024-03-29T05:48:19;15.02;;;7.80;;
83694;SDS011;73676;43.582;22.268;2024-03-29T05:50:45;15.02;;;7.13;;
83694;SDS011;73676;43.582;22.268;2024-03-29T05:53:10;9.52;;;5.07;;
83694;SDS011;73676;43.582;22.268;2024-03-29T05:55:36;19.35;;;8.18;;
83694;SDS011;73676;43.582;22.268;2024-03-29T05:58:02;28.92;;;17.80;;
83694;SDS011;73676;43.582;22.268;2024-03-29T06:00:27;14.75;;;7.95;;
83694;SDS011;73676;43.582;22.268;2024-03-29T06:02:53;23.58;;;14.95;;
83694;SDS011;73676;43.582;22.268;2024-03-29T06:05:18;25.70;;;17.08;;
83694;SDS011;73676;43.582;22.268;2024-03-29T06:07:43;49.65;;;33.72;;
83694;SDS011;73676;43.582;22.268;2024-03-29T06:10:09;12.40;;;7.78;;
83694;SDS011;73676;43.582;22.268;2024-03-29T06:12:35;59.20;;;40.03;;
83694;SDS011;73676;43.582;22.268;2024-03-29T06:15:01;37.92;;;28.70;;
83694;SDS011;73676;43.582;22.268;2024-03-29T06:17:44;34.35;;;30.70;;
83694;SDS011;73676;43.582;22.268;2024-03-29T06:20:10;13.18;;;9.20;;
83694;SDS011;73676;43.582;22.268;2024-03-29T06:22:36;17.33;;;9.80;;
83694;SDS011;73676;43.582;22.268;2024-03-29T06:25:01;5.97;;;4.20;;
83694;SDS011;73676;43.582;22.268;2024-03-29T06:27:33;7.65;;;3.40;;
83694;SDS011;73676;43.582;22.268;2024-03-29T06:29:58;7.80;;;4.07;;
83694;SDS011;73676;43.582;22.268;2024-03-29T06:32:24;10.65;;;5.43;;
83694;SDS011;73676;43.582;22.268;2024-03-29T06:34:49;12.55;;;6.18;;
83694;SDS011;73676;43.582;22.268;2024-03-29T06:37:15;45.00;;;40.40;;
83694;SDS011;73676;43.582;22.268;2024-03-29T06:39:40;19.10;;;14.95;;
83694;SDS011;73676;43.582;22.268;2024-03-29T06:42:07;13.10;;;7.03;;
83694;SDS011;73676;43.582;22.268;2024-03-29T06:44:33;16.27;;;9.20;;
83694;SDS011;73676;43.582;22.268;2024-03-29T06:46:59;19.05;;;11.80;;
83694;SDS011;73676;43.582;22.268;2024-03-29T06:49:24;11.48;;;5.43;;
83694;SDS011;73676;43.582;22.268;2024-03-29T06:51:49;35.08;;;20.10;;
83694;SDS011;73676;43.582;22.268;2024-03-29T06:54:15;21.50;;;13.05;;
83694;SDS011;73676;43.582;22.268;2024-03-29T06:56:41;20.77;;;10.95;;
83694;SDS011;73676;43.582;22.268;2024-03-29T06:59:06;16.23;;;9.32;;
83694;SDS011;73676;43.582;22.268;2024-03-29T07:01:32;16.60;;;9.18;;
83694;SDS011;73676;43.582;22.268;2024-03-29T07:03:57;18.30;;;11.88;;
83694;SDS011;73676;43.582;22.268;2024-03-29T07:06:22;41.08;;;17.77;;
83694;SDS011;73676;43.582;22.268;2024-03-29T07:08:48;14.48;;;7.28;;
83694;SDS011;73676;43.582;22.268;2024-03-29T07:11:13;28.38;;;13.13;;
83694;SDS011;73676;43.582;22.268;2024-03-29T07:13:38;28.52;;;15.23;;
83694;SDS011;73676;43.582;22.268;2024-03-29T07:16:04;49.40;;;24.55;;
83694;SDS011;73676;43.582;22.268;2024-03-29T07:18:29;32.75;;;19.27;;
83694;SDS011;73676;43.582;22.268;2024-03-29T07:20:55;40.78;;;18.40;;
83694;SDS011;73676;43.582;22.268;2024-03-29T07:23:20;22.40;;;9.98;;
83694;SDS011;73676;43.582;22.268;2024-03-29T07:25:56;10.65;;;5.13;;
83694;SDS011;73676;43.582;22.268;2024-03-29T07:28:21;20.30;;;8.45;;
83694;SDS011;73676;43.582;22.268;2024-03-29T07:30:46;34.05;;;15.70;;
83694;SDS011;73676;43.582;22.268;2024-03-29T07:33:12;41.85;;;19.52;;
83694;SDS011;73676;43.582;22.268;2024-03-29T07:35:40;100.78;;;46.80;;
83694;SDS011;73676;43.582;22.268;2024-03-29T07:38:06;130.80;;;62.30;;
83694;SDS011;73676;43.582;22.268;2024-03-29T07:40:31;58.25;;;30.80;;
83694;SDS011;73676;43.582;22.268;2024-03-29T07:42:57;18.63;;;6.68;;
83694;SDS011;73676;43.582;22.268;2024-03-29T07:45:22;11.07;;;4.35;;
83694;SDS011;73676;43.582;22.268;2024-03-29T07:47:48;23.00;;;11.52;;
83694;SDS011;73676;43.582;22.268;2024-03-29T07:50:17;23.52;;;14.45;;
83694;SDS011;73676;43.582;22.268;2024-03-29T07:52:44;13.13;;;3.55;;
83694;SDS011;73676;43.582;22.268;2024-03-29T07:55:09;52.28;;;14.07;;
83694;SDS011;73676;43.582;22.268;2024-03-29T07:57:35;13.80;;;4.15;;
83694;SDS011;73676;43.582;22.268;2024-03-29T08:00:00;37.13;;;23.90;;
83694;SDS011;73676;43.582;22.268;2024-03-29T08:02:26;15.65;;;3.65;;
83694;SDS011;73676;43.582;22.268;2024-03-29T08:04:54;11.48;;;3.90;;
83694;SDS011;73676;43.582;22.268;2024-03-29T08:07:19;11.95;;;2.97;;
83694;SDS011;73676;43.582;22.268;2024-03-29T08:09:45;11.13;;;3.97;;
83694;SDS011;73676;43.582;22.268;2024-03-29T08:12:10;9.20;;;3.15;;
83694;SDS011;73676;43.582;22.268;2024-03-29T08:14:35;13.88;;;4.38;;
83694;SDS011;73676;43.582;22.268;2024-03-29T08:17:01;25.20;;;10.50;;
83694;SDS011;73676;43.582;22.268;2024-03-29T08:19:29;16.40;;;5.93;;
83694;SDS011;73676;43.582;22.268;2024-03-29T08:21:55;10.75;;;2.75;;
83694;SDS011;73676;43.582;22.268;2024-03-29T08:24:20;12.95;;;3.78;;
83694;SDS011;73676;43.582;22.268;2024-03-29T08:26:46;10.98;;;4.82;;
83694;SDS011;73676;43.582;22.268;2024-03-29T08:29:11;10.82;;;3.55;;
83694;SDS011;73676;43.582;22.268;2024-03-29T08:31:36;7.35;;;2.50;;
83694;SDS011;73676;43.582;22.268;2024-03-29T08:34:02;6.07;;;2.30;;
83694;SDS011;73676;43.582;22.268;2024-03-29T08:36:27;11.95;;;4.30;;
83694;SDS011;73676;43.582;22.268;2024-03-29T08:38:52;11.75;;;3.83;;
83694;SDS011;73676;43.582;22.268;2024-03-29T08:41:18;10.95;;;4.85;;
83694;SDS011;73676;43.582;22.268;2024-03-29T08:43:43;6.50;;;3.13;;
83694;SDS011;73676;43.582;22.268;2024-03-29T08:46:08;12.48;;;4.97;;
83694;SDS011;73676;43.582;22.268;2024-03-29T08:48:34;20.10;;;10.40;;
83694;SDS011;73676;43.582;22.268;2024-03-29T08:50:59;12.05;;;4.60;;
83694;SDS011;73676;43.582;22.268;2024-03-29T08:53:24;8.38;;;2.20;;
83694;SDS011;73676;43.582;22.268;2024-03-29T08:55:53;6.35;;;3.28;;
83694;SDS011;73676;43.582;22.268;2024-03-29T08:58:19;10.57;;;3.65;;
83694;SDS011;73676;43.582;22.268;2024-03-29T09:00:52;3.45;;;1.90;;
83694;SDS011;73676;43.582;22.268;2024-03-29T09:03:25;9.98;;;4.03;;
83694;SDS011;73676;43.582;22.268;2024-03-29T09:05:51;9.35;;;5.70;;
83694;SDS011;73676;43.582;22.268;2024-03-29T09:08:17;6.15;;;2.15;;
83694;SDS011;73676;43.582;22.268;2024-03-29T09:10:42;13.05;;;9.65;;
83694;SDS011;73676;43.582;22.268;2024-03-29T09:13:07;6.05;;;2.55;;
83694;SDS011;73676;43.582;22.268;2024-03-29T09:15:34;13.18;;;10.80;;
83694;SDS011;73676;43.582;22.268;2024-03-29T09:18:00;11.82;;;6.90;;
83694;SDS011;73676;43.582;22.268;2024-03-29T09:20:34;12.13;;;6.18;;
83694;SDS011;73676;43.582;22.268;2024-03-29T09:22:59;13.15;;;10.80;;
83694;SDS011;73676;43.582;22.268;2024-03-29T09:25:25;10.90;;;5.97;;
83694;SDS011;73676;43.582;22.268;2024-03-29T09:27:50;9.95;;;5.63;;
83694;SDS011;73676;43.582;22.268;2024-03-29T09:30:16;21.52;;;12.35;;
83694;SDS011;73676;43.582;22.268;2024-03-29T09:32:41;10.57;;;4.05;;
83694;SDS011;73676;43.582;22.268;2024-03-29T09:35:06;6.53;;;3.20;;
83694;SDS011;73676;43.582;22.268;2024-03-29T09:37:32;21.48;;;10.32;;
83694;SDS011;73676;43.582;22.268;2024-03-29T09:40:01;35.55;;;23.83;;
83694;SDS011;73676;43.582;22.268;2024-03-29T09:42:26;8.38;;;2.85;;
83694;SDS011;73676;43.582;22.268;2024-03-29T09:44:55;4.78;;;1.70;;
83694;SDS011;73676;43.582;22.268;2024-03-29T09:47:22;3.75;;;1.73;;
83694;SDS011;73676;43.582;22.268;2024-03-29T09:49:47;6.55;;;2.15;;
83694;SDS011;73676;43.582;22.268;2024-03-29T09:52:15;5.03;;;1.97;;
83694;SDS011;73676;43.582;22.268;2024-03-29T09:54:41;6.00;;;2.30;;
83694;SDS011;73676;43.582;22.268;2024-03-29T09:57:06;4.28;;;2.05;;
83694;SDS011;73676;43.582;22.268;2024-03-29T09:59:32;4.97;;;1.80;;
83694;SDS011;73676;43.582;22.268;2024-03-29T10:01:59;8.13;;;4.57;;
83694;SDS011;73676;43.582;22.268;2024-03-29T10:04:25;5.65;;;2.50;;
83694;SDS011;73676;43.582;22.268;2024-03-29T10:06:52;6.90;;;2.10;;
83694;SDS011;73676;43.582;22.268;2024-03-29T10:09:18;8.27;;;2.45;;
83694;SDS011;73676;43.582;22.268;2024-03-29T10:11:44;7.10;;;2.47;;
83694;SDS011;73676;43.582;22.268;2024-03-29T10:14:10;5.75;;;1.65;;
83694;SDS011;73676;43.582;22.268;2024-03-29T10:16:35;10.43;;;4.32;;
83694;SDS011;73676;43.582;22.268;2024-03-29T10:19:00;6.20;;;1.80;;
83694;SDS011;73676;43.582;22.268;2024-03-29T10:21:27;8.07;;;1.70;;
83694;SDS011;73676;43.582;22.268;2024-03-29T10:23:52;5.38;;;1.83;;
83694;SDS011;73676;43.582;22.268;2024-03-29T10:26:18;5.75;;;1.80;;
83694;SDS011;73676;43.582;22.268;2024-03-29T10:28:46;7.47;;;1.80;;
83694;SDS011;73676;43.582;22.268;2024-03-29T10:31:11;5.65;;;3.13;;
83694;SDS011;73676;43.582;22.268;2024-03-29T10:33:38;4.55;;;1.70;;
83694;SDS011;73676;43.582;22.268;2024-03-29T10:36:04;6.22;;;2.10;;
83694;SDS011;73676;43.582;22.268;2024-03-29T10:38:30;7.53;;;3.40;;
83694;SDS011;73676;43.582;22.268;2024-03-29T10:40:55;3.90;;;1.65;;
83694;SDS011;73676;43.582;22.268;2024-03-29T10:43:21;8.63;;;3.05;;
83694;SDS011;73676;43.582;22.268;2024-03-29T10:45:47;12.35;;;6.90;;
83694;SDS011;73676;43.582;22.268;2024-03-29T10:48:14;11.85;;;4.57;;
83694;SDS011;73676;43.582;22.268;2024-03-29T10:50:40;16.38;;;11.75;;
83694;SDS011;73676;43.582;22.268;2024-03-29T10:53:07;4.63;;;1.45;;
83694;SDS011;73676;43.582;22.268;2024-03-29T10:55:33;5.28;;;1.60;;
83694;SDS011;73676;43.582;22.268;2024-03-29T10:58:00;5.63;;;1.98;;
83694;SDS011;73676;43.582;22.268;2024-03-29T11:00:25;5.35;;;4.20;;
83694;SDS011;73676;43.582;22.268;2024-03-29T11:02:57;8.95;;;4.07;;
83694;SDS011;73676;43.582;22.268;2024-03-29T11:05:28;7.75;;;2.58;;
83694;SDS011;73676;43.582;22.268;2024-03-29T11:07:54;5.47;;;1.40;;
83694;SDS011;73676;43.582;22.268;2024-03-29T11:10:24;3.83;;;1.58;;
83694;SDS011;73676;43.582;22.268;2024-03-29T11:15:22;4.90;;;1.67;;
83694;SDS011;73676;43.582;22.268;2024-03-29T11:17:53;8.98;;;5.47;;
83694;SDS011;73676;43.582;22.268;2024-03-29T11:20:20;4.93;;;1.90;;
83694;SDS011;73676;43.582;22.268;2024-03-29T11:22:49;11.40;;;2.70;;
83694;SDS011;73676;43.582;22.268;2024-03-29T11:25:15;6.45;;;2.03;;
83694;SDS011;73676;43.582;22.268;2024-03-29T11:27:40;8.18;;;2.00;;
83694;SDS011;73676;43.582;22.268;2024-03-29T11:30:06;12.00;;;2.45;;
83694;SDS011;73676;43.582;22.268;2024-03-29T11:32:35;10.38;;;5.53;;
83694;SDS011;73676;43.582;22.268;2024-03-29T11:35:00;6.85;;;3.08;;
83694;SDS011;73676;43.582;22.268;2024-03-29T11:37:29;5.88;;;1.88;;
83694;SDS011;73676;43.582;22.268;2024-03-29T11:39:55;5.65;;;2.00;;
83694;SDS011;73676;43.582;22.268;2024-03-29T11:42:34;10.10;;;2.25;;
83694;SDS011;73676;43.582;22.268;2024-03-29T11:45:00;10.32;;;2.63;;
83694;SDS011;73676;43.582;22.268;2024-03-29T11:47:25;11.73;;;2.70;;
83694;SDS011;73676;43.582;22.268;2024-03-29T11:49:59;4.38;;;1.83;;
83694;SDS011;73676;43.582;22.268;2024-03-29T11:52:25;4.35;;;1.48;;
83694;SDS011;73676;43.582;22.268;2024-03-29T11:54:51;6.30;;;1.60;;
83694;SDS011;73676;43.582;22.268;2024-03-29T11:57:16;6.53;;;1.80;;
83694;SDS011;73676;43.582;22.268;2024-03-29T11:59:41;9.02;;;3.38;;
83694;SDS011;73676;43.582;22.268;2024-03-29T12:02:07;6.82;;;2.10;;
83694;SDS011;73676;43.582;22.268;2024-03-29T12:04:34;3.28;;;1.60;;
83694;SDS011;73676;43.582;22.268;2024-03-29T12:06:59;4.50;;;1.50;;
83694;SDS011;73676;43.582;22.268;2024-03-29T12:09:25;5.97;;;1.90;;
83694;SDS011;73676;43.582;22.268;2024-03-29T12:11:50;6.30;;;1.85;;
83694;SDS011;73676;43.582;22.268;2024-03-29T12:14:16;5.30;;;1.80;;
83694;SDS011;73676;43.582;22.268;2024-03-29T12:16:42;5.80;;;1.48;;
83694;SDS011;73676;43.582;22.268;2024-03-29T12:19:08;7.60;;;3.30;;
83694;SDS011;73676;43.582;22.268;2024-03-29T12:21:33;6.13;;;2.40;;
83694;SDS011;73676;43.582;22.268;2024-03-29T12:23:59;8.48;;;4.65;;
83694;SDS011;73676;43.582;22.268;2024-03-29T12:26:25;8.27;;;2.72;;
83694;SDS011;73676;43.582;22.268;2024-03-29T12:28:51;8.43;;;2.22;;
83694;SDS011;73676;43.582;22.268;2024-03-29T12:31:20;11.20;;;6.45;;
83694;SDS011;73676;43.582;22.268;2024-03-29T12:33:51;10.15;;;4.07;;
83694;SDS011;73676;43.582;22.268;2024-03-29T12:36:16;6.97;;;3.15;;
83694;SDS011;73676;43.582;22.268;2024-03-29T12:38:45;6.25;;;2.47;;
83694;SDS011;73676;43.582;22.268;2024-03-29T12:41:13;8.70;;;2.40;;
83694;SDS011;73676;43.582;22.268;2024-03-29T12:43:38;6.60;;;1.98;;
83694;SDS011;73676;43.582;22.268;2024-03-29T12:46:04;5.95;;;2.20;;
83694;SDS011;73676;43.582;22.268;2024-03-29T12:48:29;9.38;;;2.72;;
83694;SDS011;73676;43.582;22.268;2024-03-29T12:50:54;7.70;;;4.43;;
83694;SDS011;73676;43.582;22.268;2024-03-29T12:53:20;7.47;;;2.50;;
83694;SDS011;73676;43.582;22.268;2024-03-29T12:55:47;7.53;;;2.88;;
83694;SDS011;73676;43.582;22.268;2024-03-29T12:58:13;10.40;;;4.25;;
83694;SDS011;73676;43.582;22.268;2024-03-29T13:00:38;18.02;;;5.20;;
83694;SDS011;73676;43.582;22.268;2024-03-29T13:03:04;6.28;;;2.63;;
83694;SDS011;73676;43.582;22.268;2024-03-29T13:05:30;9.57;;;3.55;;
83694;SDS011;73676;43.582;22.268;2024-03-29T13:08:03;6.15;;;2.15;;
83694;SDS011;73676;43.582;22.268;2024-03-29T13:10:29;7.93;;;2.00;;
83694;SDS011;73676;43.582;22.268;2024-03-29T13:12:54;9.38;;;2.33;;
83694;SDS011;73676;43.582;22.268;2024-03-29T13:15:20;11.05;;;2.35;;
83694;SDS011;73676;43.582;22.268;2024-03-29T13:17:46;45.65;;;17.08;;
83694;SDS011;73676;43.582;22.268;2024-03-29T13:20:13;16.42;;;6.32;;
83694;SDS011;73676;43.582;22.268;2024-03-29T13:22:38;11.40;;;4.13;;
83694;SDS011;73676;43.582;22.268;2024-03-29T13:25:04;5.22;;;2.08;;
83694;SDS011;73676;43.582;22.268;2024-03-29T13:27:30;6.75;;;3.60;;
83694;SDS011;73676;43.582;22.268;2024-03-29T13:29:55;8.68;;;2.45;;
83694;SDS011;73676;43.582;22.268;2024-03-29T13:32:21;7.18;;;2.42;;
83694;SDS011;73676;43.582;22.268;2024-03-29T13:34:46;5.07;;;2.22;;
83694;SDS011;73676;43.582;22.268;2024-03-29T13:37:11;10.57;;;2.72;;
83694;SDS011;73676;43.582;22.268;2024-03-29T13:39:37;7.43;;;2.20;;
83694;SDS011;73676;43.582;22.268;2024-03-29T13:42:02;6.70;;;2.80;;
83694;SDS011;73676;43.582;22.268;2024-03-29T13:44:27;12.32;;;4.18;;
83694;SDS011;73676;43.582;22.268;2024-03-29T13:46:53;7.20;;;3.42;;
83694;SDS011;73676;43.582;22.268;2024-03-29T13:49:18;13.35;;;7.82;;
83694;SDS011;73676;43.582;22.268;2024-03-29T13:51:47;8.23;;;2.58;;
83694;SDS011;73676;43.582;22.268;2024-03-29T13:54:12;8.43;;;2.45;;
83694;SDS011;73676;43.582;22.268;2024-03-29T13:56:37;8.15;;;3.25;;
83694;SDS011;73676;43.582;22.268;2024-03-29T13:59:03;8.77;;;3.83;;
83694;SDS011;73676;43.582;22.268;2024-03-29T14:01:28;10.30;;;5.80;;
83694;SDS011;73676;43.582;22.268;2024-03-29T14:03:53;9.15;;;3.20;;
83694;SDS011;73676;43.582;22.268;2024-03-29T14:06:19;7.90;;;2.50;;
83694;SDS011;73676;43.582;22.268;2024-03-29T14:08:45;5.10;;;2.00;;
83694;SDS011;73676;43.582;22.268;2024-03-29T14:11:10;10.35;;;3.10;;
83694;SDS011;73676;43.582;22.268;2024-03-29T14:13:36;7.47;;;2.95;;
83694;SDS011;73676;43.582;22.268;2024-03-29T14:16:01;13.32;;;5.50;;
83694;SDS011;73676;43.582;22.268;2024-03-29T14:18:28;8.57;;;3.15;;
83694;SDS011;73676;43.582;22.268;2024-03-29T14:20:53;7.72;;;2.63;;